Latest Weather Observations for Mudgee

IDN60801

Issued at 5:32 pm EDT Thursday 23 February 2017 (issued every 30 minutes, with the page automatically refreshed every 10 minutes)

About weather observations | Map of weather stations | Latest weather observations for NSW | Other Formats
Station Details ID: 062101 Name: MUDGEE AIRPORT AWS Lat: -32.56 Lon: 149.61 Height: 471.0 m
Data from the previous 72 hours. | See also: Recent months at Mudgee
Date/Time
EDT
Temp
°C
App
Temp
°C
Dew
Point
°C
Rel
Hum
%
Delta-T
°C
Wind Press
QNH
hPa
Press
MSL
hPa
Rain since
9am
mm
Dir  Spd
km/h
Gust
km/h
Spd
kts
Gust
kts
23/05:30pm 34.4 33.0 9.6 22 14.5 W 7 24 4 13 1017.4 1015.0 0.0
23/05:00pm 35.2 33.1 9.6 21 15.0 ENE 11 20 6 11 1017.3 1014.9 0.0
23/04:30pm 34.4 31.7 8.9 21 14.7 NNW 13 20 7 11 1017.6 1015.2 0.0
23/04:00pm 34.6 32.1 9.8 22 14.5 NW 13 20 7 11 1017.9 1015.5 0.0
23/03:30pm 35.0 33.2 10.8 23 14.4 WSW 11 24 6 13 1018.2 1015.8 0.0
23/03:00pm 35.0 34.1 11.4 24 14.2 WSW 7 15 4 8 1018.4 1016.1 0.0
23/02:30pm 33.1 31.3 11.0 26 13.1 N 11 20 6 11 1018.8 1016.5 0.0
23/02:00pm 32.8 30.7 11.3 27 12.8 WNW 13 22 7 12 1019.2 1016.9 0.0
23/01:30pm 33.0 31.9 13.1 30 12.2 NNW 11 20 6 11 1019.6 1017.2 0.0
23/01:00pm 31.7 30.4 12.5 31 11.6 NW 11 17 6 9 1020.0 1017.6 0.0
23/12:30pm 31.3 30.2 13.1 33 11.1 NNE 11 26 6 14 1020.4 1018.1 0.0
23/12:00pm 30.4 29.9 13.7 36 10.2 NNW 9 19 5 10 1020.8 1018.5 0.0
23/11:30am 29.3 28.5 13.9 39 9.4 W 11 17 6 9 1021.2 1018.9 0.0
23/11:00am 28.1 27.7 14.0 42 8.6 NNW 9 19 5 10 1021.3 1019.0 0.0
23/10:30am 26.8 26.3 13.9 45 7.8 NNW 9 19 5 10 1021.5 1019.2 0.0
23/10:00am 26.2 26.8 14.3 48 7.2 NW 4 15 2 8 1021.7 1019.3 0.0
23/09:30am 24.5 25.2 14.6 54 6.0 ESE 4 9 2 5 1021.5 1019.2 0.0
23/09:00am 22.3 22.5 14.7 62 4.6 SSW 7 11 4 6 1021.8 1019.4 0.0
23/08:30am 20.2 21.3 13.4 65 4.0 CALM 0 0 0 0 1021.4 1019.1 0.0
23/08:00am 18.2 18.3 12.6 70 3.2 SSE 4 11 2 6 1021.1 1018.8 0.0
23/07:30am 16.4 17.2 12.6 78 2.1 CALM 0 0 0 0 1020.5 1018.2 0.0
23/07:00am 14.4 13.2 11.6 83 1.5 ENE 9 9 5 5 1020.1 1017.7 0.0
23/06:30am 15.0 15.4 11.4 79 2.0 CALM 0 0 0 0 1019.6 1017.2 0.0
23/06:00am 16.3 16.8 11.7 74 2.6 CALM 0 2 0 1 1019.1 1016.8 0.0
23/05:30am 16.6 17.2 12.0 74 2.6 CALM 0 0 0 0 1019.2 1016.9 0.0
23/05:00am 16.8 16.9 11.5 71 2.9 SSE 2 6 1 3 1019.2 1016.9 0.0
23/04:30am 17.4 17.7 12.1 71 3.0 S 2 7 1 4 1019.2 1016.9 0.0
23/04:00am 17.1 17.7 11.8 71 3.0 CALM 0 0 0 0 1019.2 1016.9 0.0
23/03:30am 17.8 18.1 10.9 64 3.8 CALM 0 6 0 3 1019.4 1017.0 0.0
23/03:00am 19.2 18.5 11.5 61 4.3 SSE 6 7 3 4 1019.2 1016.9 0.0
23/02:30am 19.3 19.7 11.1 59 4.6 CALM 0 4 0 2 1019.2 1016.9 0.0
23/02:00am 19.7 19.2 10.7 56 5.0 ESE 4 6 2 3 1019.4 1017.0 0.0
23/01:30am 21.0 19.6 10.8 52 5.7 SSE 9 13 5 7 1019.2 1016.9 0.0
23/01:00am 20.9 19.3 10.1 50 6.0 SSE 9 15 5 8 1019.4 1017.0 0.0
23/12:30am 22.2 21.2 10.4 47 6.6 SE 6 7 3 4 1019.5 1017.1 0.0
23/12:00am 23.9 23.0 10.6 43 7.5 SSE 6 9 3 5 1019.5 1017.1 0.0
 
Date/Time
EDT
Temp
°C
App
Temp
°C
Dew
Point
°C
Rel
Hum
%
Delta-T
°C
Wind Press
QNH
hPa
Press
MSL
hPa
Rain since
9am
mm
Dir  Spd
km/h
Gust
km/h
Spd
kts
Gust
kts
22/11:30pm 25.3 24.8 12.2 44 7.7 ESE 6 11 3 6 1019.4 1017.0 0.0
22/11:00pm 25.4 24.3 11.9 43 7.9 E 9 15 5 8 1019.0 1016.7 0.0
22/10:30pm 25.9 22.3 10.5 38 8.8 NE 20 26 11 14 1018.7 1016.4 0.0
22/10:00pm 26.6 22.6 9.0 33 9.8 ENE 20 28 11 15 1018.3 1016.0 0.0
22/09:30pm 24.1 20.6 8.9 38 8.4 NE 17 20 9 11 1018.2 1015.8 0.0
22/09:00pm 23.7 21.0 8.9 39 8.1 NE 13 15 7 8 1017.8 1015.4 0.0
22/08:30pm 26.8 24.7 9.6 34 9.7 NE 11 13 6 7 1017.4 1015.0 0.0
22/08:00pm 26.9 24.5 8.8 32 10.1 NE 11 13 6 7 1017.0 1014.7 0.0
22/07:30pm 30.7 29.2 8.4 25 12.6 ENE 6 9 3 5 1016.8 1014.5 0.0
22/07:00pm 31.3 29.1 7.7 23 13.2 NE 9 17 5 9 1016.7 1014.4 0.0
22/06:30pm 31.8 29.9 7.5 22 13.6 N 7 13 4 7 1016.5 1014.2 0.0
22/06:00pm 32.7 31.0 8.2 22 13.9 NW 7 13 4 7 1016.5 1014.2 0.0
22/05:30pm 31.8 30.1 7.5 22 13.6 N 6 11 3 6 1016.6 1014.3 0.0
22/05:00pm 31.8 28.4 7.5 22 13.6 NW 15 26 8 14 1016.7 1014.4 0.0
22/04:30pm 32.3 30.6 8.5 23 13.5 SW 7 13 4 7 1016.9 1014.6 0.0
22/04:00pm 32.0 29.9 8.3 23 13.4 NNW 9 19 5 10 1017.4 1015.0 0.0
22/03:30pm 32.0 29.7 8.9 24 13.2 NNW 11 20 6 11 1017.8 1015.4 0.0
22/03:00pm 31.1 29.3 9.3 26 12.5 NNW 9 19 5 10 1018.2 1015.8 0.0
22/02:30pm 30.3 27.7 9.2 27 12.0 NNW 13 19 7 10 1018.8 1016.5 0.0
22/02:00pm 30.6 28.8 9.5 27 12.1 W 9 20 5 11 1019.2 1016.9 0.0
22/01:30pm 29.3 27.5 9.4 29 11.3 NNE 9 19 5 10 1019.7 1017.3 0.0
22/01:00pm 29.5 28.2 11.1 32 10.8 WNW 9 17 5 9 1020.1 1017.7 0.0
22/12:30pm 28.0 26.2 10.7 34 10.0 WNW 11 17 6 9 1020.5 1018.2 0.0
22/12:00pm 27.5 25.6 11.9 38 9.2 NW 13 20 7 11 1021.1 1018.8 0.0
22/11:30am 26.4 24.3 11.3 39 8.8 NNW 13 22 7 12 1021.5 1019.2 0.0
22/11:00am 26.5 25.9 13.6 45 7.7 NW 9 15 5 8 1021.9 1019.5 0.0
22/10:30am 25.0 24.8 13.5 48 6.9 NW 7 17 4 9 1022.0 1019.6 0.0
22/10:00am 23.4 23.6 14.7 58 5.2 WNW 7 13 4 7 1022.1 1019.8 0.0
22/09:30am 21.7 21.4 14.4 63 4.4 SSE 9 15 5 8 1022.1 1019.8 0.0
22/09:00am 20.0 18.8 13.9 68 3.6 SSE 13 17 7 9 1022.0 1019.6 0.0
22/08:30am 18.7 17.1 13.8 73 2.9 S 15 20 8 11 1022.0 1019.6 0.0
22/08:00am 17.6 16.8 13.9 79 2.1 SSE 11 15 6 8 1021.7 1019.3 0.0
22/07:30am 16.3 16.1 13.6 84 1.6 SE 7 9 4 5 1021.4 1019.1 0.0
22/07:00am 15.8 15.0 14.0 89 1.0 S 11 17 6 9 1020.9 1018.6 0.0
22/06:30am 15.7 14.0 13.7 88 1.1 S 15 19 8 10 1020.6 1018.3 0.0
22/06:00am 15.7 14.3 13.5 87 1.3 SSE 13 15 7 8 1020.5 1018.2 0.0
22/05:30am 15.9 14.6 13.6 86 1.3 S 13 15 7 8 1020.1 1017.7 0.0
22/05:00am 16.0 15.3 13.1 83 1.6 S 9 13 5 7 1020.1 1017.7 0.0
22/04:30am 16.8 16.1 13.3 80 2.0 SSE 9 13 5 7 1020.0 1017.6 0.0
22/04:00am 17.0 15.6 13.5 80 2.0 SSE 13 15 7 8 1020.0 1017.6 0.0
22/03:30am 17.0 15.9 13.1 78 2.2 SSE 11 15 6 8 1020.0 1017.6 0.0
22/03:00am 17.3 16.6 13.2 77 2.3 SSE 9 13 5 7 1020.1 1017.7 0.0
22/02:30am 17.5 17.1 13.0 75 2.6 SE 7 15 4 8 1020.1 1017.7 0.0
22/02:00am 18.0 16.9 13.1 73 2.8 SSE 11 15 6 8 1020.2 1017.9 0.0
22/01:30am 18.5 17.6 12.7 69 3.3 SSE 9 13 5 7 1020.3 1018.0 0.0
22/01:00am 19.3 18.0 12.6 65 3.8 SSE 11 17 6 9 1020.5 1018.2 0.0
22/12:30am 20.1 18.5 12.8 63 4.2 SE 13 19 7 10 1020.4 1018.1 0.0
22/12:00am 20.9 18.5 12.8 60 4.7 SE 17 24 9 13 1020.1 1017.7 0.0
 
Date/Time
EDT
Temp
°C
App
Temp
°C
Dew
Point
°C
Rel
Hum
%
Delta-T
°C
Wind Press
QNH
hPa
Press
MSL
hPa
Rain since
9am
mm
Dir  Spd
km/h
Gust
km/h
Spd
kts
Gust
kts
21/11:30pm 21.5 19.8 12.6 57 5.2 SE 13 20 7 11 1020.2 1017.9 0.0
21/11:00pm 22.1 20.4 12.4 54 5.6 SE 13 24 7 13 1020.1 1017.7 0.0
21/10:30pm 22.1 19.0 8.9 43 7.2 SSE 15 24 8 13 1020.1 1017.7 0.0
21/10:00pm 21.5 17.1 5.0 34 8.3 S 17 20 9 11 1019.8 1017.4 0.0
21/09:30pm 21.3 19.3 2.1 28 9.2 ENE 2 6 1 3 1019.2 1016.9 0.0
21/09:00pm 22.5 19.5 2.1 26 9.8 ENE 7 13 4 7 1018.9 1016.6 0.0
21/08:30pm 23.7 20.3 2.0 24 10.5 NNE 9 9 5 5 1018.6 1016.3 0.0
21/08:00pm 26.5 23.8 0.3 18 12.5 NNE 4 7 2 4 1018.2 1015.8 0.0
21/07:30pm 26.6 23.0 0.4 18 12.6 NNE 9 13 5 7 1017.8 1015.4 0.0
21/07:00pm 28.7 25.1 0.4 16 13.8 N 9 15 5 8 1017.4 1015.0 0.0
21/06:30pm 30.0 26.6 -0.4 14 14.7 WNW 7 13 4 7 1016.9 1014.6 0.0
21/06:00pm 29.7 25.5 -0.6 14 14.6 NW 11 19 6 10 1016.8 1014.5 0.0
21/05:30pm 29.9 25.8 -0.5 14 14.7 W 11 17 6 9 1016.8 1014.5 0.0
21/05:00pm 30.0 25.9 -0.4 14 14.7 W 11 19 6 10 1016.8 1014.5 0.0
21/04:30pm 29.6 26.3 0.2 15 14.4 WSW 7 11 4 6 1016.9 1014.6 0.0
21/04:00pm 28.6 25.3 0.3 16 13.7 N 7 11 4 6 1017.2 1014.8 0.0
21/03:30pm 28.5 24.7 1.9 18 13.3 WNW 11 19 6 10 1017.3 1014.9 0.0
21/03:00pm 28.4 23.8 1.8 18 13.2 SW 15 24 8 13 1017.6 1015.2 0.0
21/02:30pm 27.6 24.8 3.3 21 12.4 SW 7 13 4 7 1018.1 1015.7 0.0
21/02:00pm 27.4 24.5 4.5 23 11.9 NE 9 19 5 10 1018.5 1016.2 0.0
21/01:30pm 26.7 24.1 3.2 22 11.9 NW 6 11 3 6 1018.9 1016.6 0.0
21/01:00pm 25.5 22.4 3.5 24 11.1 ESE 9 13 5 7 1019.1 1016.8 0.0
21/12:30pm 25.1 22.4 3.7 25 10.8 SW 7 13 4 7 1019.7 1017.3 0.0
21/12:00pm 25.4 22.4 4.0 25 10.8 SE 9 13 5 7 1020.1 1017.7 0.0
21/11:30am 24.0 21.4 3.3 26 10.3 SW 6 11 3 6 1020.5 1018.2 0.0
21/11:00am 22.5 19.7 3.1 28 9.5 NNE 7 15 4 8 1020.6 1018.3 0.0
21/10:30am 21.7 19.3 4.3 32 8.7 S 6 15 3 8 1020.7 1018.4 0.0
21/10:00am 20.0 16.6 4.1 35 7.8 S 11 17 6 9 1020.6 1018.3 0.0
21/09:30am 18.6 14.6 2.9 35 7.5 SE 13 19 7 10 1020.6 1018.3 0.0
21/09:00am 17.0 13.6 1.8 36 6.9 SSE 9 13 5 7 1020.4 1018.1 0.0
21/08:30am 13.9 10.4 1.5 43 5.5 SSE 9 15 5 8 1020.0 1017.6 0.0
21/08:00am 11.4 9.5 2.7 55 3.9 ESE 2 15 1 8 1019.7 1017.3 0.0
21/07:30am 7.2 5.5 1.9 69 2.2 CALM 0 0 0 0 1019.2 1016.9 0.0
21/07:00am 5.3 3.0 0.7 72 1.8 NE 2 9 1 5 1018.7 1016.4 0.0
21/06:30am 6.2 3.6 0.7 68 2.2 ENE 4 6 2 3 1018.5 1016.2 0.0
21/06:00am 6.3 4.4 0.6 67 2.3 CALM 0 0 0 0 1018.4 1016.1 0.0
21/05:30am 5.1 2.8 0.1 70 2.0 NNE 2 7 1 4 1018.1 1015.7 0.0
21/05:00am 5.1 1.4 0.1 70 2.0 NNE 9 11 5 6 1018.0 1015.6 0.0
21/04:30am 6.3 4.3 0.2 65 2.4 CALM 0 0 0 0 1017.7 1015.3 0.0
21/04:00am 6.6 4.4 0.9 67 2.3 E 2 6 1 3 1017.7 1015.3 0.0
21/03:30am 6.1 2.7 -0.4 63 2.6 NE 7 11 4 6 1017.7 1015.3 0.0
21/03:00am 7.1 4.7 -0.1 60 2.9 NE 2 9 1 5 1017.8 1015.4 0.0
21/02:30am 7.8 4.7 0.1 58 3.1 NE 6 9 3 5 1017.8 1015.4 0.0
21/02:00am 8.8 6.8 -0.2 53 3.7 CALM 0 0 0 0 1017.8 1015.4 0.0
21/01:30am 8.5 5.2 0.2 56 3.4 NE 7 11 4 6 1018.1 1015.7 0.0
21/01:00am 8.7 4.7 0.2 55 3.5 NE 11 13 6 7 1018.1 1015.7 0.0
21/12:30am 8.8 4.7 0.0 54 3.6 NE 11 11 6 6 1018.1 1015.7 0.0
21/12:00am 9.4 4.9 -0.5 50 4.0 NNE 13 15 7 8 1018.1 1015.7 0.0
 
Date/Time
EDT
Temp
°C
App
Temp
°C
Dew
Point
°C
Rel
Hum
%
Delta-T
°C
Wind Press
QNH
hPa
Press
MSL
hPa
Rain since
9am
mm
Dir  Spd
km/h
Gust
km/h
Spd
kts
Gust
kts
20/11:30pm 10.2 6.2 0.5 51 4.1 NNE 11 11 6 6 1017.8 1015.4 0.0
20/11:00pm 11.4 8.3 0.2 46 4.7 NNE 6 9 3 5 1017.6 1015.2 0.0
20/10:30pm 12.3 9.0 0.4 44 5.1 N 7 7 4 4 1017.4 1015.0 0.0
20/10:00pm 13.8 10.4 -0.3 38 6.0 N 7 9 4 5 1017.2 1014.8 0.0
20/09:30pm 13.8 10.6 -0.6 37 6.1 NNE 6 9 3 5 1016.7 1014.4 0.0
20/09:00pm 17.4 15.4 -0.3 30 7.8 CALM 0 0 0 0 1016.3 1014.0 0.0
20/08:30pm 19.8 16.4 -0.8 25 9.2 S 7 11 4 6 1015.8 1013.4 0.0
20/08:00pm 20.2 16.7 -1.0 24 9.4 SW 7 13 4 7 1015.1 1012.7 0.0
20/07:30pm 22.1 17.0 -1.9 20 10.7 W 15 20 8 11 1014.5 1012.2 0.0
20/07:00pm 23.2 17.3 -2.4 18 11.4 W 19 28 10 15 1013.9 1011.5 0.0
20/06:30pm 23.8 17.8 -2.7 17 11.8 W 19 26 10 14 1013.6 1011.2 0.0
20/06:00pm 23.7 17.4 -3.6 16 11.9 W 20 28 11 15 1013.3 1010.9 0.0

Other Formats:

Comma delimited format used in spreadsheet applications
http://www.bom.gov.au/fwo/IDN60801/IDN60801.94727.axf

JavaScript Object Notation format (JSON) in row-major order
http://www.bom.gov.au/fwo/IDN60801/IDN60801.94727.json